sensor_id;sensor_type;location;lat;lon;timestamp;temperature;humidity
6696;DHT22;3385;48.928;10.330;2023-07-28T00:00:48;16.60;99.90
6696;DHT22;3385;48.928;10.330;2023-07-28T00:03:14;16.20;99.90
6696;DHT22;3385;48.928;10.330;2023-07-28T00:05:39;16.50;99.90
6696;DHT22;3385;48.928;10.330;2023-07-28T00:08:05;16.10;99.90
6696;DHT22;3385;48.928;10.330;2023-07-28T00:10:31;16.20;99.90
6696;DHT22;3385;48.928;10.330;2023-07-28T00:12:57;16.00;99.90
6696;DHT22;3385;48.928;10.330;2023-07-28T00:15:22;16.30;99.90
6696;DHT22;3385;48.928;10.330;2023-07-28T00:17:48;16.00;99.90
6696;DHT22;3385;48.928;10.330;2023-07-28T00:20:14;16.10;99.90
6696;DHT22;3385;48.928;10.330;2023-07-28T00:22:40;16.00;99.90
6696;DHT22;3385;48.928;10.330;2023-07-28T00:25:06;15.80;99.90
6696;DHT22;3385;48.928;10.330;2023-07-28T00:27:31;15.60;99.90
6696;DHT22;3385;48.928;10.330;2023-07-28T00:29:57;15.30;99.90
6696;DHT22;3385;48.928;10.330;2023-07-28T00:32:23;15.40;99.90
6696;DHT22;3385;48.928;10.330;2023-07-28T00:34:48;15.50;99.90
6696;DHT22;3385;48.928;10.330;2023-07-28T00:37:14;15.50;99.90
6696;DHT22;3385;48.928;10.330;2023-07-28T00:39:40;15.20;99.90
6696;DHT22;3385;48.928;10.330;2023-07-28T00:42:06;15.60;99.90
6696;DHT22;3385;48.928;10.330;2023-07-28T00:44:31;15.30;99.90
6696;DHT22;3385;48.928;10.330;2023-07-28T00:46:57;15.10;99.90
6696;DHT22;3385;48.928;10.330;2023-07-28T00:49:23;15.30;99.90
6696;DHT22;3385;48.928;10.330;2023-07-28T00:51:49;15.10;99.90
6696;DHT22;3385;48.928;10.330;2023-07-28T00:54:16;15.00;99.90
6696;DHT22;3385;48.928;10.330;2023-07-28T00:56:42;16.10;99.90
6696;DHT22;3385;48.928;10.330;2023-07-28T00:59:08;15.30;99.90
6696;DHT22;3385;48.928;10.330;2023-07-28T01:01:34;15.10;99.90
6696;DHT22;3385;48.928;10.330;2023-07-28T01:03:59;15.30;99.90
6696;DHT22;3385;48.928;10.330;2023-07-28T01:07:25;14.40;99.90
6696;DHT22;3385;48.928;10.330;2023-07-28T01:09:33;15.30;99.90
6696;DHT22;3385;48.928;10.330;2023-07-28T01:11:59;15.20;99.90
6696;DHT22;3385;48.928;10.330;2023-07-28T01:14:26;15.10;99.90
6696;DHT22;3385;48.928;10.330;2023-07-28T01:16:52;14.50;99.90
6696;DHT22;3385;48.928;10.330;2023-07-28T01:19:20;14.80;99.90
6696;DHT22;3385;48.928;10.330;2023-07-28T01:22:07;15.10;99.90
6696;DHT22;3385;48.928;10.330;2023-07-28T01:24:55;14.90;99.90
6696;DHT22;3385;48.928;10.330;2023-07-28T01:27:21;15.20;99.90
6696;DHT22;3385;48.928;10.330;2023-07-28T01:29:48;14.80;99.90
6696;DHT22;3385;48.928;10.330;2023-07-28T01:32:14;14.90;99.90
6696;DHT22;3385;48.928;10.330;2023-07-28T01:34:40;15.10;99.90
6696;DHT22;3385;48.928;10.330;2023-07-28T01:37:06;15.00;99.90
6696;DHT22;3385;48.928;10.330;2023-07-28T01:39:31;15.20;99.90
6696;DHT22;3385;48.928;10.330;2023-07-28T01:41:57;14.60;99.90
6696;DHT22;3385;48.928;10.330;2023-07-28T01:44:23;15.00;99.90
6696;DHT22;3385;48.928;10.330;2023-07-28T01:46:49;14.50;99.90
6696;DHT22;3385;48.928;10.330;2023-07-28T01:49:14;14.80;99.90
6696;DHT22;3385;48.928;10.330;2023-07-28T01:51:40;14.50;99.90
6696;DHT22;3385;48.928;10.330;2023-07-28T01:54:06;14.70;99.90
6696;DHT22;3385;48.928;10.330;2023-07-28T01:56:32;14.80;99.90
6696;DHT22;3385;48.928;10.330;2023-07-28T01:58:57;14.60;99.90
6696;DHT22;3385;48.928;10.330;2023-07-28T02:01:23;14.50;99.90
6696;DHT22;3385;48.928;10.330;2023-07-28T02:03:49;15.10;99.90
6696;DHT22;3385;48.928;10.330;2023-07-28T02:06:14;15.30;99.90
6696;DHT22;3385;48.928;10.330;2023-07-28T02:08:40;15.20;99.90
6696;DHT22;3385;48.928;10.330;2023-07-28T02:11:06;15.70;99.90
6696;DHT22;3385;48.928;10.330;2023-07-28T02:13:31;15.50;99.90
6696;DHT22;3385;48.928;10.330;2023-07-28T02:15:57;15.70;99.90
6696;DHT22;3385;48.928;10.330;2023-07-28T02:18:23;15.90;99.90
6696;DHT22;3385;48.928;10.330;2023-07-28T02:20:49;15.70;99.90
6696;DHT22;3385;48.928;10.330;2023-07-28T02:23:15;15.60;99.90
6696;DHT22;3385;48.928;10.330;2023-07-28T02:25:41;15.90;99.90
6696;DHT22;3385;48.928;10.330;2023-07-28T02:28:09;15.80;99.90
6696;DHT22;3385;48.928;10.330;2023-07-28T02:30:35;15.90;99.90
6696;DHT22;3385;48.928;10.330;2023-07-28T02:33:00;15.40;99.90
6696;DHT22;3385;48.928;10.330;2023-07-28T02:35:26;15.80;99.90
6696;DHT22;3385;48.928;10.330;2023-07-28T02:37:52;15.50;99.90
6696;DHT22;3385;48.928;10.330;2023-07-28T02:40:18;15.40;99.90
6696;DHT22;3385;48.928;10.330;2023-07-28T02:42:43;15.20;99.90
6696;DHT22;3385;48.928;10.330;2023-07-28T02:45:09;15.40;99.90
6696;DHT22;3385;48.928;10.330;2023-07-28T02:47:36;15.60;99.90
6696;DHT22;3385;48.928;10.330;2023-07-28T02:50:02;15.20;99.90
6696;DHT22;3385;48.928;10.330;2023-07-28T02:52:28;15.30;99.90
6696;DHT22;3385;48.928;10.330;2023-07-28T02:54:54;15.20;99.90
6696;DHT22;3385;48.928;10.330;2023-07-28T02:57:19;14.90;99.90
6696;DHT22;3385;48.928;10.330;2023-07-28T02:59:45;15.10;99.90
6696;DHT22;3385;48.928;10.330;2023-07-28T03:02:11;15.20;99.90
6696;DHT22;3385;48.928;10.330;2023-07-28T03:04:37;15.40;99.90
6696;DHT22;3385;48.928;10.330;2023-07-28T03:07:02;15.20;99.90
6696;DHT22;3385;48.928;10.330;2023-07-28T03:09:28;15.10;99.90
6696;DHT22;3385;48.928;10.330;2023-07-28T03:14:20;15.10;99.90
6696;DHT22;3385;48.928;10.330;2023-07-28T03:16:46;15.20;99.90
6696;DHT22;3385;48.928;10.330;2023-07-28T03:19:12;14.90;99.90
6696;DHT22;3385;48.928;10.330;2023-07-28T03:21:37;14.90;99.90
6696;DHT22;3385;48.928;10.330;2023-07-28T03:24:03;15.00;99.90
6696;DHT22;3385;48.928;10.330;2023-07-28T03:26:29;14.80;99.90
6696;DHT22;3385;48.928;10.330;2023-07-28T03:28:55;15.10;99.90
6696;DHT22;3385;48.928;10.330;2023-07-28T03:31:21;15.20;99.90
6696;DHT22;3385;48.928;10.330;2023-07-28T03:33:46;15.00;99.90
6696;DHT22;3385;48.928;10.330;2023-07-28T03:36:12;15.30;99.90
6696;DHT22;3385;48.928;10.330;2023-07-28T03:38:38;15.40;99.90
6696;DHT22;3385;48.928;10.330;2023-07-28T03:41:04;15.20;99.90
6696;DHT22;3385;48.928;10.330;2023-07-28T03:45:55;15.10;99.90
6696;DHT22;3385;48.928;10.330;2023-07-28T03:48:21;15.20;99.90
6696;DHT22;3385;48.928;10.330;2023-07-28T03:50:47;15.00;99.90
6696;DHT22;3385;48.928;10.330;2023-07-28T03:53:13;15.30;99.90
6696;DHT22;3385;48.928;10.330;2023-07-28T03:55:38;15.60;99.90
6696;DHT22;3385;48.928;10.330;2023-07-28T03:58:04;15.60;99.90
6696;DHT22;3385;48.928;10.330;2023-07-28T04:00:30;15.40;99.90
6696;DHT22;3385;48.928;10.330;2023-07-28T04:02:55;15.30;99.90
6696;DHT22;3385;48.928;10.330;2023-07-28T04:05:21;15.40;99.90
6696;DHT22;3385;48.928;10.330;2023-07-28T04:07:47;15.40;99.90
6696;DHT22;3385;48.928;10.330;2023-07-28T04:10:13;15.70;99.90
6696;DHT22;3385;48.928;10.330;2023-07-28T04:12:38;15.80;99.90
6696;DHT22;3385;48.928;10.330;2023-07-28T04:15:04;16.00;99.90
6696;DHT22;3385;48.928;10.330;2023-07-28T04:17:31;15.70;99.90
6696;DHT22;3385;48.928;10.330;2023-07-28T04:19:56;15.90;99.90
6696;DHT22;3385;48.928;10.330;2023-07-28T04:22:22;15.70;99.90
6696;DHT22;3385;48.928;10.330;2023-07-28T04:24:48;15.80;99.90
6696;DHT22;3385;48.928;10.330;2023-07-28T04:27:14;15.90;99.90
6696;DHT22;3385;48.928;10.330;2023-07-28T04:29:40;16.00;99.90
6696;DHT22;3385;48.928;10.330;2023-07-28T04:32:06;16.10;99.90
6696;DHT22;3385;48.928;10.330;2023-07-28T04:34:35;16.00;99.90
6696;DHT22;3385;48.928;10.330;2023-07-28T04:37:01;16.10;99.90
6696;DHT22;3385;48.928;10.330;2023-07-28T04:39:26;16.20;99.90
6696;DHT22;3385;48.928;10.330;2023-07-28T04:41:52;16.30;99.90
6696;DHT22;3385;48.928;10.330;2023-07-28T04:44:18;15.90;99.90
6696;DHT22;3385;48.928;10.330;2023-07-28T04:46:45;16.10;99.90
6696;DHT22;3385;48.928;10.330;2023-07-28T04:49:13;15.80;99.90
6696;DHT22;3385;48.928;10.330;2023-07-28T04:51:39;16.00;99.90
6696;DHT22;3385;48.928;10.330;2023-07-28T04:54:04;16.00;99.90
6696;DHT22;3385;48.928;10.330;2023-07-28T04:56:30;16.10;99.90
6696;DHT22;3385;48.928;10.330;2023-07-28T04:58:56;16.10;99.90
6696;DHT22;3385;48.928;10.330;2023-07-28T05:01:24;16.40;99.90
6696;DHT22;3385;48.928;10.330;2023-07-28T05:03:50;16.30;99.90
6696;DHT22;3385;48.928;10.330;2023-07-28T05:06:15;16.10;99.90
6696;DHT22;3385;48.928;10.330;2023-07-28T05:08:41;16.00;99.90
6696;DHT22;3385;48.928;10.330;2023-07-28T05:11:07;16.00;99.90
6696;DHT22;3385;48.928;10.330;2023-07-28T05:13:33;16.20;99.90
6696;DHT22;3385;48.928;10.330;2023-07-28T05:15:58;16.10;99.90
6696;DHT22;3385;48.928;10.330;2023-07-28T05:18:25;16.20;99.90
6696;DHT22;3385;48.928;10.330;2023-07-28T05:20:51;16.40;99.90
6696;DHT22;3385;48.928;10.330;2023-07-28T05:23:16;16.20;99.90
6696;DHT22;3385;48.928;10.330;2023-07-28T05:25:42;16.40;99.90
6696;DHT22;3385;48.928;10.330;2023-07-28T05:28:08;16.40;99.90
6696;DHT22;3385;48.928;10.330;2023-07-28T05:30:34;16.10;99.90
6696;DHT22;3385;48.928;10.330;2023-07-28T05:32:59;16.40;99.90
6696;DHT22;3385;48.928;10.330;2023-07-28T05:35:25;16.40;99.90
6696;DHT22;3385;48.928;10.330;2023-07-28T05:37:51;16.40;99.90
6696;DHT22;3385;48.928;10.330;2023-07-28T05:40:17;16.30;99.90
6696;DHT22;3385;48.928;10.330;2023-07-28T05:42:42;16.60;99.90
6696;DHT22;3385;48.928;10.330;2023-07-28T05:45:09;16.70;99.90
6696;DHT22;3385;48.928;10.330;2023-07-28T05:47:34;16.90;99.90
6696;DHT22;3385;48.928;10.330;2023-07-28T05:50:00;16.80;99.90
6696;DHT22;3385;48.928;10.330;2023-07-28T05:52:26;16.70;99.90
6696;DHT22;3385;48.928;10.330;2023-07-28T05:54:52;16.40;99.90
6696;DHT22;3385;48.928;10.330;2023-07-28T05:57:17;16.40;99.90
6696;DHT22;3385;48.928;10.330;2023-07-28T05:59:43;16.60;99.90
6696;DHT22;3385;48.928;10.330;2023-07-28T06:02:09;16.20;99.90
6696;DHT22;3385;48.928;10.330;2023-07-28T06:04:34;16.60;99.90
6696;DHT22;3385;48.928;10.330;2023-07-28T06:07:00;16.50;99.90
6696;DHT22;3385;48.928;10.330;2023-07-28T06:09:26;16.20;99.90
6696;DHT22;3385;48.928;10.330;2023-07-28T06:11:52;16.70;99.90
6696;DHT22;3385;48.928;10.330;2023-07-28T06:14:18;16.40;99.90
6696;DHT22;3385;48.928;10.330;2023-07-28T06:16:43;16.50;99.90
6696;DHT22;3385;48.928;10.330;2023-07-28T06:19:09;16.80;99.90
6696;DHT22;3385;48.928;10.330;2023-07-28T06:21:35;16.90;99.90
6696;DHT22;3385;48.928;10.330;2023-07-28T06:24:00;17.10;99.90
6696;DHT22;3385;48.928;10.330;2023-07-28T06:26:26;16.70;99.90
6696;DHT22;3385;48.928;10.330;2023-07-28T06:28:52;16.70;99.90
6696;DHT22;3385;48.928;10.330;2023-07-28T06:31:18;17.00;99.90
6696;DHT22;3385;48.928;10.330;2023-07-28T06:33:43;17.20;99.90
6696;DHT22;3385;48.928;10.330;2023-07-28T06:36:09;17.20;99.90
6696;DHT22;3385;48.928;10.330;2023-07-28T06:38:35;17.50;99.90
6696;DHT22;3385;48.928;10.330;2023-07-28T06:41:00;17.40;99.90
6696;DHT22;3385;48.928;10.330;2023-07-28T06:43:26;17.90;99.90
6696;DHT22;3385;48.928;10.330;2023-07-28T06:45:53;17.70;99.90
6696;DHT22;3385;48.928;10.330;2023-07-28T06:48:19;17.70;99.90
6696;DHT22;3385;48.928;10.330;2023-07-28T06:50:45;17.90;99.90
6696;DHT22;3385;48.928;10.330;2023-07-28T06:53:11;17.10;99.90
6696;DHT22;3385;48.928;10.330;2023-07-28T06:55:36;17.70;99.90
6696;DHT22;3385;48.928;10.330;2023-07-28T06:58:07;17.50;99.90
6696;DHT22;3385;48.928;10.330;2023-07-28T07:00:35;17.70;99.90
6696;DHT22;3385;48.928;10.330;2023-07-28T07:03:00;17.80;99.90
6696;DHT22;3385;48.928;10.330;2023-07-28T07:05:26;17.90;99.90
6696;DHT22;3385;48.928;10.330;2023-07-28T07:07:52;18.10;99.90
6696;DHT22;3385;48.928;10.330;2023-07-28T07:10:20;18.00;99.90
6696;DHT22;3385;48.928;10.330;2023-07-28T07:12:46;18.10;99.90
6696;DHT22;3385;48.928;10.330;2023-07-28T07:17:37;18.10;99.90
6696;DHT22;3385;48.928;10.330;2023-07-28T07:20:03;18.30;99.90
6696;DHT22;3385;48.928;10.330;2023-07-28T07:22:31;18.40;99.90
6696;DHT22;3385;48.928;10.330;2023-07-28T07:24:56;18.50;99.90
6696;DHT22;3385;48.928;10.330;2023-07-28T07:27:24;18.50;99.90
6696;DHT22;3385;48.928;10.330;2023-07-28T07:29:52;18.70;99.90
6696;DHT22;3385;48.928;10.330;2023-07-28T07:34:44;18.80;99.90
6696;DHT22;3385;48.928;10.330;2023-07-28T07:37:10;18.50;99.90
6696;DHT22;3385;48.928;10.330;2023-07-28T07:39:35;18.90;99.90
6696;DHT22;3385;48.928;10.330;2023-07-28T07:42:01;18.80;99.90
6696;DHT22;3385;48.928;10.330;2023-07-28T07:44:27;18.80;99.90
6696;DHT22;3385;48.928;10.330;2023-07-28T07:46:54;18.80;99.90
6696;DHT22;3385;48.928;10.330;2023-07-28T07:49:19;19.00;99.90
6696;DHT22;3385;48.928;10.330;2023-07-28T07:51:45;19.00;99.90
6696;DHT22;3385;48.928;10.330;2023-07-28T07:54:11;19.00;99.90
6696;DHT22;3385;48.928;10.330;2023-07-28T07:56:41;19.00;99.90
6696;DHT22;3385;48.928;10.330;2023-07-28T07:59:07;19.00;99.90
6696;DHT22;3385;48.928;10.330;2023-07-28T08:01:33;19.00;99.90
6696;DHT22;3385;48.928;10.330;2023-07-28T08:03:59;19.10;99.90
6696;DHT22;3385;48.928;10.330;2023-07-28T08:06:25;18.80;99.90
6696;DHT22;3385;48.928;10.330;2023-07-28T08:08:51;18.80;99.90
6696;DHT22;3385;48.928;10.330;2023-07-28T08:11:18;18.90;99.90
6696;DHT22;3385;48.928;10.330;2023-07-28T08:13:44;18.70;99.90
6696;DHT22;3385;48.928;10.330;2023-07-28T08:16:10;18.80;99.90
6696;DHT22;3385;48.928;10.330;2023-07-28T08:18:36;19.00;99.90
6696;DHT22;3385;48.928;10.330;2023-07-28T08:21:02;19.10;99.90
6696;DHT22;3385;48.928;10.330;2023-07-28T08:23:28;19.30;99.90
6696;DHT22;3385;48.928;10.330;2023-07-28T08:25:54;19.80;99.90
6696;DHT22;3385;48.928;10.330;2023-07-28T08:28:19;19.90;99.90
6696;DHT22;3385;48.928;10.330;2023-07-28T08:30:54;20.10;99.90
6696;DHT22;3385;48.928;10.330;2023-07-28T08:33:20;20.50;99.90
6696;DHT22;3385;48.928;10.330;2023-07-28T08:35:46;20.90;99.90
6696;DHT22;3385;48.928;10.330;2023-07-28T08:38:12;20.80;99.90
6696;DHT22;3385;48.928;10.330;2023-07-28T08:40:38;20.80;99.90
6696;DHT22;3385;48.928;10.330;2023-07-28T08:43:04;21.00;99.90
6696;DHT22;3385;48.928;10.330;2023-07-28T08:45:31;21.00;99.90
6696;DHT22;3385;48.928;10.330;2023-07-28T08:50:23;20.70;99.90
6696;DHT22;3385;48.928;10.330;2023-07-28T08:52:49;21.30;99.90
6696;DHT22;3385;48.928;10.330;2023-07-28T08:55:16;21.20;99.90
6696;DHT22;3385;48.928;10.330;2023-07-28T08:57:42;21.20;99.90
6696;DHT22;3385;48.928;10.330;2023-07-28T09:00:12;21.00;99.90
6696;DHT22;3385;48.928;10.330;2023-07-28T09:02:42;21.20;99.90
6696;DHT22;3385;48.928;10.330;2023-07-28T09:05:19;21.40;99.90
6696;DHT22;3385;48.928;10.330;2023-07-28T09:07:45;21.00;99.90
6696;DHT22;3385;48.928;10.330;2023-07-28T09:10:12;21.40;99.90
6696;DHT22;3385;48.928;10.330;2023-07-28T09:12:48;21.00;99.90
6696;DHT22;3385;48.928;10.330;2023-07-28T09:15:14;21.60;99.90
6696;DHT22;3385;48.928;10.330;2023-07-28T09:17:45;20.50;99.90
6696;DHT22;3385;48.928;10.330;2023-07-28T09:20:17;20.20;99.90
6696;DHT22;3385;48.928;10.330;2023-07-28T09:22:44;20.10;99.90
6696;DHT22;3385;48.928;10.330;2023-07-28T09:25:16;20.10;99.90
6696;DHT22;3385;48.928;10.330;2023-07-28T09:27:52;19.70;99.90
6696;DHT22;3385;48.928;10.330;2023-07-28T09:30:18;19.40;99.90
6696;DHT22;3385;48.928;10.330;2023-07-28T09:32:49;19.60;99.90
6696;DHT22;3385;48.928;10.330;2023-07-28T09:35:16;19.10;99.90
6696;DHT22;3385;48.928;10.330;2023-07-28T09:37:44;19.10;99.90
6696;DHT22;3385;48.928;10.330;2023-07-28T09:40:12;19.40;99.90
6696;DHT22;3385;48.928;10.330;2023-07-28T09:42:39;19.70;99.90
6696;DHT22;3385;48.928;10.330;2023-07-28T09:45:05;19.90;99.90
6696;DHT22;3385;48.928;10.330;2023-07-28T09:47:34;19.90;99.90
6696;DHT22;3385;48.928;10.330;2023-07-28T09:50:03;19.80;99.90
6696;DHT22;3385;48.928;10.330;2023-07-28T09:52:34;19.70;99.90
6696;DHT22;3385;48.928;10.330;2023-07-28T09:55:06;20.00;99.90
6696;DHT22;3385;48.928;10.330;2023-07-28T09:57:41;20.20;99.90
6696;DHT22;3385;48.928;10.330;2023-07-28T10:00:12;19.80;99.90
6696;DHT22;3385;48.928;10.330;2023-07-28T10:02:39;19.50;99.90
6696;DHT22;3385;48.928;10.330;2023-07-28T10:05:08;19.40;99.90
6696;DHT22;3385;48.928;10.330;2023-07-28T10:07:38;19.40;99.90
6696;DHT22;3385;48.928;10.330;2023-07-28T10:10:08;19.30;99.90
6696;DHT22;3385;48.928;10.330;2023-07-28T10:12:47;19.00;99.90
6696;DHT22;3385;48.928;10.330;2023-07-28T10:15:18;19.00;99.90
6696;DHT22;3385;48.928;10.330;2023-07-28T10:17:50;19.00;99.90
6696;DHT22;3385;48.928;10.330;2023-07-28T10:20:37;19.20;99.90
6696;DHT22;3385;48.928;10.330;2023-07-28T10:23:10;19.30;99.90
6696;DHT22;3385;48.928;10.330;2023-07-28T10:28:05;19.50;99.90
6696;DHT22;3385;48.928;10.330;2023-07-28T10:30:38;19.90;99.90
6696;DHT22;3385;48.928;10.330;2023-07-28T10:33:05;19.30;99.90
6696;DHT22;3385;48.928;10.330;2023-07-28T10:35:31;19.90;99.90
6696;DHT22;3385;48.928;10.330;2023-07-28T10:37:57;19.50;99.90
6696;DHT22;3385;48.928;10.330;2023-07-28T10:42:52;19.30;99.90
6696;DHT22;3385;48.928;10.330;2023-07-28T10:45:19;18.90;99.90
6696;DHT22;3385;48.928;10.330;2023-07-28T10:47:45;18.90;99.90
6696;DHT22;3385;48.928;10.330;2023-07-28T10:50:11;19.00;99.90
6696;DHT22;3385;48.928;10.330;2023-07-28T10:52:45;18.80;99.90
6696;DHT22;3385;48.928;10.330;2023-07-28T10:55:25;19.70;99.90
6696;DHT22;3385;48.928;10.330;2023-07-28T10:57:52;19.90;99.90
6696;DHT22;3385;48.928;10.330;2023-07-28T11:00:21;19.50;99.90
6696;DHT22;3385;48.928;10.330;2023-07-28T11:02:50;19.70;99.90
6696;DHT22;3385;48.928;10.330;2023-07-28T11:05:34;19.90;99.90
6696;DHT22;3385;48.928;10.330;2023-07-28T11:08:01;20.10;99.90
6696;DHT22;3385;48.928;10.330;2023-07-28T11:10:31;20.20;99.90
6696;DHT22;3385;48.928;10.330;2023-07-28T11:13:00;20.70;99.90
6696;DHT22;3385;48.928;10.330;2023-07-28T11:15:26;21.60;99.90
6696;DHT22;3385;48.928;10.330;2023-07-28T11:17:52;21.70;99.90
6696;DHT22;3385;48.928;10.330;2023-07-28T11:20:28;22.00;99.90
6696;DHT22;3385;48.928;10.330;2023-07-28T11:25:25;22.00;99.90
6696;DHT22;3385;48.928;10.330;2023-07-28T11:27:52;21.80;99.90
6696;DHT22;3385;48.928;10.330;2023-07-28T11:30:19;21.90;99.90
6696;DHT22;3385;48.928;10.330;2023-07-28T11:32:46;21.70;99.90
6696;DHT22;3385;48.928;10.330;2023-07-28T11:35:15;21.30;99.90
6696;DHT22;3385;48.928;10.330;2023-07-28T11:37:44;21.30;99.90
6696;DHT22;3385;48.928;10.330;2023-07-28T11:40:11;21.30;99.90
6696;DHT22;3385;48.928;10.330;2023-07-28T11:42:48;21.40;99.90
6696;DHT22;3385;48.928;10.330;2023-07-28T11:45:16;21.70;99.90
6696;DHT22;3385;48.928;10.330;2023-07-28T11:47:58;22.10;99.90
6696;DHT22;3385;48.928;10.330;2023-07-28T11:50:25;22.10;99.90
6696;DHT22;3385;48.928;10.330;2023-07-28T11:52:51;22.60;99.90
6696;DHT22;3385;48.928;10.330;2023-07-28T11:55:18;22.50;99.90
6696;DHT22;3385;48.928;10.330;2023-07-28T11:57:44;22.20;99.90
6696;DHT22;3385;48.928;10.330;2023-07-28T12:00:10;22.10;99.90
6696;DHT22;3385;48.928;10.330;2023-07-28T12:02:38;22.00;99.90
6696;DHT22;3385;48.928;10.330;2023-07-28T12:05:12;21.80;99.90
6696;DHT22;3385;48.928;10.330;2023-07-28T12:07:38;21.40;99.90
6696;DHT22;3385;48.928;10.330;2023-07-28T12:10:05;21.60;99.90
6696;DHT22;3385;48.928;10.330;2023-07-28T12:12:43;21.30;99.90
6696;DHT22;3385;48.928;10.330;2023-07-28T12:20:43;23.00;99.90
6696;DHT22;3385;48.928;10.330;2023-07-28T12:23:14;22.20;99.90
6696;DHT22;3385;48.928;10.330;2023-07-28T12:25:40;22.10;99.90
6696;DHT22;3385;48.928;10.330;2023-07-28T12:28:07;22.10;99.90
6696;DHT22;3385;48.928;10.330;2023-07-28T12:30:34;22.30;99.90
6696;DHT22;3385;48.928;10.330;2023-07-28T12:33:01;22.80;99.90
6696;DHT22;3385;48.928;10.330;2023-07-28T12:35:31;23.20;99.90
6696;DHT22;3385;48.928;10.330;2023-07-28T12:37:58;23.10;99.90
6696;DHT22;3385;48.928;10.330;2023-07-28T12:40:28;23.20;99.90
6696;DHT22;3385;48.928;10.330;2023-07-28T12:42:55;23.40;99.90
6696;DHT22;3385;48.928;10.330;2023-07-28T12:45:21;24.90;99.90
6696;DHT22;3385;48.928;10.330;2023-07-28T12:47:47;25.30;99.90
6696;DHT22;3385;48.928;10.330;2023-07-28T12:50:13;26.00;99.90
6696;DHT22;3385;48.928;10.330;2023-07-28T12:52:39;31.20;99.90
6696;DHT22;3385;48.928;10.330;2023-07-28T12:55:05;26.20;99.90
6696;DHT22;3385;48.928;10.330;2023-07-28T12:57:31;26.30;99.90
6696;DHT22;3385;48.928;10.330;2023-07-28T12:59:58;25.70;99.90
6696;DHT22;3385;48.928;10.330;2023-07-28T13:02:23;25.20;99.90
6696;DHT22;3385;48.928;10.330;2023-07-28T13:04:49;24.90;99.90
6696;DHT22;3385;48.928;10.330;2023-07-28T13:07:15;25.10;99.90
6696;DHT22;3385;48.928;10.330;2023-07-28T13:09:41;24.50;99.90
6696;DHT22;3385;48.928;10.330;2023-07-28T13:12:09;24.40;99.90
6696;DHT22;3385;48.928;10.330;2023-07-28T13:14:35;24.00;99.90
6696;DHT22;3385;48.928;10.330;2023-07-28T13:17:01;24.10;99.90
6696;DHT22;3385;48.928;10.330;2023-07-28T13:19:27;24.00;99.90
6696;DHT22;3385;48.928;10.330;2023-07-28T13:21:52;22.90;99.90
6696;DHT22;3385;48.928;10.330;2023-07-28T13:24:18;23.00;99.90
6696;DHT22;3385;48.928;10.330;2023-07-28T13:26:44;23.00;99.90
6696;DHT22;3385;48.928;10.330;2023-07-28T13:29:09;22.90;99.90
6696;DHT22;3385;48.928;10.330;2023-07-28T13:31:35;22.90;99.90
6696;DHT22;3385;48.928;10.330;2023-07-28T13:34:01;22.90;99.90
6696;DHT22;3385;48.928;10.330;2023-07-28T13:36:28;23.00;99.90
6696;DHT22;3385;48.928;10.330;2023-07-28T13:41:19;22.80;99.90
6696;DHT22;3385;48.928;10.330;2023-07-28T13:43:45;22.80;99.90
6696;DHT22;3385;48.928;10.330;2023-07-28T13:46:11;22.80;99.90
6696;DHT22;3385;48.928;10.330;2023-07-28T13:48:37;22.80;99.90
6696;DHT22;3385;48.928;10.330;2023-07-28T13:51:04;22.80;99.90
6696;DHT22;3385;48.928;10.330;2023-07-28T13:53:30;22.70;99.90
6696;DHT22;3385;48.928;10.330;2023-07-28T13:55:56;22.40;99.90
6696;DHT22;3385;48.928;10.330;2023-07-28T13:58:22;22.50;99.90
6696;DHT22;3385;48.928;10.330;2023-07-28T14:00:47;22.30;99.90
6696;DHT22;3385;48.928;10.330;2023-07-28T14:03:13;22.20;99.90
6696;DHT22;3385;48.928;10.330;2023-07-28T14:05:39;22.70;99.90
6696;DHT22;3385;48.928;10.330;2023-07-28T14:08:05;22.70;99.90
6696;DHT22;3385;48.928;10.330;2023-07-28T14:10:31;22.70;99.90
6696;DHT22;3385;48.928;10.330;2023-07-28T14:13:00;22.60;99.90
6696;DHT22;3385;48.928;10.330;2023-07-28T14:15:26;22.70;99.90
6696;DHT22;3385;48.928;10.330;2023-07-28T14:17:52;22.70;99.90
6696;DHT22;3385;48.928;10.330;2023-07-28T14:20:17;22.40;99.90
6696;DHT22;3385;48.928;10.330;2023-07-28T14:22:43;22.30;99.90
6696;DHT22;3385;48.928;10.330;2023-07-28T14:25:09;22.20;99.90
6696;DHT22;3385;48.928;10.330;2023-07-28T14:27:35;22.10;99.90
6696;DHT22;3385;48.928;10.330;2023-07-28T14:30:01;22.00;99.90
6696;DHT22;3385;48.928;10.330;2023-07-28T14:32:26;21.80;99.90
6696;DHT22;3385;48.928;10.330;2023-07-28T14:34:52;21.60;99.90
6696;DHT22;3385;48.928;10.330;2023-07-28T14:37:18;24.40;99.90
6696;DHT22;3385;48.928;10.330;2023-07-28T14:39:44;21.50;99.90
6696;DHT22;3385;48.928;10.330;2023-07-28T14:42:10;21.40;99.90
6696;DHT22;3385;48.928;10.330;2023-07-28T14:44:36;21.10;99.90
6696;DHT22;3385;48.928;10.330;2023-07-28T14:47:01;21.50;99.90
6696;DHT22;3385;48.928;10.330;2023-07-28T14:49:27;21.10;99.90
6696;DHT22;3385;48.928;10.330;2023-07-28T14:51:56;21.00;99.90
6696;DHT22;3385;48.928;10.330;2023-07-28T14:54:22;20.90;99.90
6696;DHT22;3385;48.928;10.330;2023-07-28T14:56:48;20.90;99.90
6696;DHT22;3385;48.928;10.330;2023-07-28T14:59:13;20.30;99.90
6696;DHT22;3385;48.928;10.330;2023-07-28T15:01:40;20.20;99.90
6696;DHT22;3385;48.928;10.330;2023-07-28T15:04:06;19.90;99.90
6696;DHT22;3385;48.928;10.330;2023-07-28T15:06:32;19.80;99.90
6696;DHT22;3385;48.928;10.330;2023-07-28T15:08:58;19.80;99.90
6696;DHT22;3385;48.928;10.330;2023-07-28T15:11:23;19.60;99.90
6696;DHT22;3385;48.928;10.330;2023-07-28T15:13:50;19.30;99.90
6696;DHT22;3385;48.928;10.330;2023-07-28T15:16:16;19.20;99.90
6696;DHT22;3385;48.928;10.330;2023-07-28T15:18:42;19.70;99.90
6696;DHT22;3385;48.928;10.330;2023-07-28T15:21:07;19.30;99.90
6696;DHT22;3385;48.928;10.330;2023-07-28T15:23:33;19.20;99.90
6696;DHT22;3385;48.928;10.330;2023-07-28T15:26:00;18.90;99.90
6696;DHT22;3385;48.928;10.330;2023-07-28T15:28:26;19.10;99.90
6696;DHT22;3385;48.928;10.330;2023-07-28T15:33:21;19.00;99.90
6696;DHT22;3385;48.928;10.330;2023-07-28T15:35:49;18.90;99.90
6696;DHT22;3385;48.928;10.330;2023-07-28T15:38:15;19.20;99.90
6696;DHT22;3385;48.928;10.330;2023-07-28T15:40:41;19.30;99.90
6696;DHT22;3385;48.928;10.330;2023-07-28T15:43:07;19.20;99.90
6696;DHT22;3385;48.928;10.330;2023-07-28T15:47:59;19.00;99.90
6696;DHT22;3385;48.928;10.330;2023-07-28T15:50:25;19.10;99.90
6696;DHT22;3385;48.928;10.330;2023-07-28T15:52:51;19.10;99.90
6696;DHT22;3385;48.928;10.330;2023-07-28T15:55:18;19.60;99.90
6696;DHT22;3385;48.928;10.330;2023-07-28T15:57:44;19.30;99.90
6696;DHT22;3385;48.928;10.330;2023-07-28T16:00:10;18.90;99.90
6696;DHT22;3385;48.928;10.330;2023-07-28T16:02:39;19.20;99.90
6696;DHT22;3385;48.928;10.330;2023-07-28T16:05:06;19.00;99.90
6696;DHT22;3385;48.928;10.330;2023-07-28T16:07:32;19.20;99.90
6696;DHT22;3385;48.928;10.330;2023-07-28T16:09:58;19.20;99.90
6696;DHT22;3385;48.928;10.330;2023-07-28T16:12:25;18.90;99.90
6696;DHT22;3385;48.928;10.330;2023-07-28T16:14:51;19.10;99.90